Time;durP1;ratioP1;P1;durP2;ratioP2;P2;SDS_P1;SDS_P2;PMS_P1;PMS_P2;Temp;Humidity;BMP_temperature;BMP_pressure;BME280_temperature;BME280_humidity;BME280_pressure;Samples;Min_cycle;Max_cycle;Signal;HPM_P1;HPM_P2
2022/06/24 00:00:33;;;;;;;;;7.50;5.75;;;;;25.53;44.46;100229.72;5107967;27;69673;-56
2022/06/24 00:02:59;;;;;;;;;6.00;6.00;;;;;25.52;44.59;100228.03;5104508;27;45416;-55
2022/06/24 00:05:28;;;;;;;;;5.75;4.00;;;;;25.50;44.73;100232.69;5102519;27;56261;-56
2022/06/24 00:07:53;;;;;;;;;7.75;5.25;;;;;25.51;44.90;100238.91;5109180;27;45203;-56
2022/06/24 00:10:21;;;;;;;;;3.25;3.25;;;;;25.49;45.53;100239.03;5104300;27;45445;-56
2022/06/24 00:12:47;;;;;;;;;5.75;5.75;;;;;25.49;45.80;100232.84;5103127;27;45458;-56
2022/06/24 00:15:12;;;;;;;;;7.00;4.75;;;;;25.47;45.73;100232.16;5109765;27;46409;-56
2022/06/24 00:17:38;;;;;;;;;5.25;3.25;;;;;25.44;45.79;100235.97;5109342;27;45427;-56
2022/06/24 00:20:06;;;;;;;;;5.00;4.75;;;;;25.43;46.03;100239.66;5102008;27;68200;-55
2022/06/24 00:22:41;;;;;;;;;5.50;5.50;;;;;25.42;46.25;100253.19;5115485;27;45511;-55
2022/06/24 00:25:15;;;;;;;;;6.25;6.00;;;;;25.41;46.55;100244.31;5110926;27;46286;-54
2022/06/24 00:27:42;;;;;;;;;5.50;5.00;;;;;25.39;46.67;100244.47;5112087;27;45694;-56
2022/06/24 00:30:10;;;;;;;;;6.75;5.00;;;;;25.38;46.45;100241.94;5113500;27;45689;-56
2022/06/24 00:32:35;;;;;;;;;4.00;4.00;;;;;25.38;46.85;100239.25;5110813;27;45278;-57
2022/06/24 00:35:11;;;;;;;;;4.50;4.25;;;;;25.37;46.74;100234.88;5110033;27;75566;-56
2022/06/24 00:37:38;;;;;;;;;5.50;5.50;;;;;25.35;46.67;100240.38;5112745;27;45477;-56
2022/06/24 00:40:10;;;;;;;;;5.00;5.00;;;;;25.35;46.74;100236.88;5109340;27;45400;-56
2022/06/24 00:42:43;;;;;;;;;4.00;4.00;;;;;25.34;46.90;100241.41;5101137;27;45442;-56
2022/06/24 00:45:24;;;;;;;;;8.75;5.00;;;;;25.33;47.03;100239.69;5108712;27;46570;-57
2022/06/24 00:47:50;;;;;;;;;6.75;5.00;;;;;25.34;46.89;100243.25;5107928;27;45337;-57
2022/06/24 00:50:23;;;;;;;;;4.25;4.25;;;;;25.32;47.04;100240.72;5112153;27;47181;-56
2022/06/24 00:52:51;;;;;;;;;5.50;5.50;;;;;25.33;46.98;100245.06;5105708;27;45536;-56
2022/06/24 00:55:19;;;;;;;;;4.25;4.25;;;;;25.33;46.97;100241.53;5109194;27;45312;-56
2022/06/24 00:57:44;;;;;;;;;4.75;4.75;;;;;25.32;46.88;100243.38;5105053;27;45457;-56
2022/06/24 01:00:12;;;;;;;;;5.25;5.25;;;;;25.30;46.88;100237.34;5110522;27;45602;-56
2022/06/24 01:02:38;;;;;;;;;5.00;5.00;;;;;25.30;46.71;100237.34;5108850;27;45520;-56
2022/06/24 01:05:07;;;;;;;;;6.50;4.25;;;;;25.29;47.06;100232.97;5113137;27;50832;-57
2022/06/24 01:07:39;;;;;;;;;3.75;3.25;;;;;25.29;46.82;100238.31;5110452;27;45682;-57
2022/06/24 01:10:07;;;;;;;;;3.00;3.00;;;;;25.29;46.52;100235.66;5105565;27;45413;-57
2022/06/24 01:12:33;;;;;;;;;5.50;4.25;;;;;25.27;46.65;100234.94;5109890;27;45713;-57
2022/06/24 01:14:58;;;;;;;;;4.25;4.25;;;;;25.26;46.42;100221.72;5108302;27;46085;-55
2022/06/24 01:17:24;;;;;;;;;5.00;5.00;;;;;25.26;46.54;100230.56;5112440;27;45261;-56
2022/06/24 01:19:49;;;;;;;;;3.75;3.75;;;;;25.26;46.44;100230.56;5103552;27;45816;-57
2022/06/24 01:22:24;;;;;;;;;3.00;3.00;;;;;25.26;46.44;100227.06;5110617;27;71881;-56
2022/06/24 01:24:51;;;;;;;;;5.75;4.75;;;;;25.25;46.22;100217.31;5107018;27;46218;-56
2022/06/24 01:27:17;;;;;;;;;4.50;4.00;;;;;25.23;46.58;100217.44;5102868;27;45329;-55
2022/06/24 01:29:42;;;;;;;;;6.00;5.00;;;;;25.24;46.76;100215.63;5112578;27;45256;-56
2022/06/24 01:32:08;;;;;;;;;4.50;4.50;;;;;25.23;46.14;100216.59;5105745;27;45462;-57
2022/06/24 01:34:33;;;;;;;;;5.50;5.50;;;;;25.21;46.50;100222.09;5110804;27;46327;-55
2022/06/24 01:36:58;;;;;;;;;4.75;3.75;;;;;25.20;46.07;100220.44;5111236;27;45399;-57
2022/06/24 01:39:24;;;;;;;;;3.50;3.00;;;;;25.18;46.19;100227.78;5112066;27;45332;-56
2022/06/24 01:41:50;;;;;;;;;4.00;2.50;;;;;25.15;46.09;100241.47;5105370;27;45511;-56
2022/06/24 01:44:16;;;;;;;;;6.75;5.75;;;;;25.14;46.47;100239.75;5105909;27;45461;-57
2022/06/24 01:46:42;;;;;;;;;6.75;5.00;;;;;25.15;46.11;100244.13;5106029;27;45568;-56
2022/06/24 01:49:08;;;;;;;;;5.50;4.25;;;;;25.15;46.57;100252.19;5101778;27;64560;-56
2022/06/24 01:51:34;;;;;;;;;3.25;3.25;;;;;25.13;46.63;100264.88;5097489;27;45612;-55
2022/06/24 01:54:00;;;;;;;;;5.75;3.00;;;;;25.12;47.24;100264.00;5102057;27;45485;-55
2022/06/24 01:56:25;;;;;;;;;5.50;5.50;;;;;25.09;47.63;100261.66;5108084;27;45411;-55
2022/06/24 01:58:51;;;;;;;;;4.25;4.25;;;;;25.08;47.88;100267.97;5099572;27;45393;-55
2022/06/24 02:01:16;;;;;;;;;5.00;4.00;;;;;25.02;48.52;100263.22;5113454;27;45521;-54
2022/06/24 02:03:42;;;;;;;;;6.75;5.25;;;;;24.95;48.91;100262.97;5106743;27;67069;-55
2022/06/24 02:06:10;;;;;;;;;5.75;5.00;;;;;24.92;49.21;100255.22;5103649;27;45357;-52
2022/06/24 02:08:35;;;;;;;;;6.25;4.00;;;;;24.87;48.96;100241.44;5106953;27;45409;-56
2022/06/24 02:13:46;;;;;;;;;4.50;4.00;;;;;24.65;49.55;100245.31;5105603;27;45465;-56
2022/06/24 02:16:12;;;;;;;;;6.25;4.50;;;;;24.59;49.92;100240.53;5089197;27;45397;-56
2022/06/24 02:18:38;;;;;;;;;5.00;4.50;;;;;24.56;50.25;100233.63;5101766;27;45368;-55
2022/06/24 02:21:03;;;;;;;;;5.50;3.00;;;;;24.56;50.30;100230.97;5113692;27;45542;-55
2022/06/24 02:23:30;;;;;;;;;4.00;4.00;;;;;24.56;49.72;100232.78;5111042;27;58112;-55
2022/06/24 02:25:55;;;;;;;;;7.25;3.50;;;;;24.48;49.80;100236.16;5112743;27;45265;-55
2022/06/24 02:28:21;;;;;;;;;3.00;2.50;;;;;24.42;50.28;100239.41;5107880;27;45293;-55
2022/06/24 02:30:47;;;;;;;;;4.00;4.00;;;;;24.40;50.45;100247.56;5104714;27;45444;-53
2022/06/24 02:33:13;;;;;;;;;5.50;4.25;;;;;24.42;50.10;100258.97;5108620;27;45535;-55
2022/06/24 02:35:40;;;;;;;;;4.25;2.25;;;;;24.39;50.41;100261.91;5111744;27;45684;-55
2022/06/24 02:38:06;;;;;;;;;4.75;3.00;;;;;24.38;50.37;100268.28;5112764;27;45499;-55
2022/06/24 02:40:47;;;;;;;;;3.75;3.75;;;;;24.39;50.62;100263.75;5115287;27;45565;-55
2022/06/24 02:43:18;;;;;;;;;8.00;5.50;;;;;24.39;50.77;100234.34;5104192;27;46240;-55
2022/06/24 02:45:51;;;;;;;;;3.00;2.25;;;;;24.36;50.48;100224.75;5107843;27;45518;-55
2022/06/24 02:48:18;;;;;;;;;5.75;3.25;;;;;24.25;50.53;100216.91;5108154;27;45427;-54
2022/06/24 02:50:48;;;;;;;;;4.50;4.00;;;;;24.13;50.73;100213.53;5107428;27;45737;-55
2022/06/24 02:53:15;;;;;;;;;7.00;4.00;;;;;23.98;50.98;100212.28;5108931;27;46173;-54
2022/06/24 02:55:42;;;;;;;;;2.50;2.50;;;;;23.86;51.30;100215.09;5107194;27;45551;-55
2022/06/24 02:58:07;;;;;;;;;6.25;5.00;;;;;23.77;51.88;100205.22;5112669;27;45390;-55
2022/06/24 03:00:34;;;;;;;;;5.25;5.00;;;;;23.70;51.66;100212.09;5113579;27;45494;-55
2022/06/24 03:02:59;;;;;;;;;5.00;3.00;;;;;23.62;52.07;100210.13;5113170;27;46045;-55
2022/06/24 03:05:25;;;;;;;;;4.00;2.25;;;;;23.57;52.46;100209.69;5113517;27;45420;-54
2022/06/24 03:07:50;;;;;;;;;3.00;3.00;;;;;23.51;52.19;100207.56;5110927;27;46266;-55
2022/06/24 03:10:16;;;;;;;;;3.00;3.00;;;;;23.48;52.41;100210.53;5108665;27;45398;-55
2022/06/24 03:12:42;;;;;;;;;4.75;3.75;;;;;23.44;52.26;100209.97;5111062;27;71592;-55
2022/06/24 03:15:08;;;;;;;;;5.75;5.75;;;;;23.42;52.47;100208.41;5110648;27;45252;-55
2022/06/24 03:17:34;;;;;;;;;4.75;4.50;;;;;23.39;52.63;100208.66;5110052;27;45442;-56
2022/06/24 03:19:59;;;;;;;;;4.50;4.50;;;;;23.38;52.95;100204.31;5105367;27;45480;-56
2022/06/24 03:22:25;;;;;;;;;5.25;4.50;;;;;23.36;52.42;100208.97;5111702;27;74799;-56
2022/06/24 03:24:51;;;;;;;;;5.50;4.50;;;;;23.33;52.77;100206.56;5100718;27;45599;-56
2022/06/24 03:27:17;;;;;;;;;6.25;5.50;;;;;23.30;53.21;100203.19;5107663;27;45623;-55
2022/06/24 03:29:42;;;;;;;;;7.00;5.00;;;;;23.29;52.80;100195.31;5102832;27;67299;-56
2022/06/24 03:32:07;;;;;;;;;9.50;4.00;;;;;23.26;53.19;100198.25;5108726;27;58743;-54
2022/06/24 03:34:33;;;;;;;;;5.00;3.75;;;;;23.20;53.33;100204.97;5107854;27;45219;-55
2022/06/24 03:36:58;;;;;;;;;7.00;5.25;;;;;23.16;53.35;100200.91;5109902;27;45570;-56
2022/06/24 03:39:24;;;;;;;;;4.50;4.00;;;;;23.18;54.00;100203.41;5108828;27;58738;-56
2022/06/24 03:41:49;;;;;;;;;6.75;3.25;;;;;23.17;53.70;100207.06;5110293;27;46059;-56
2022/06/24 03:44:14;;;;;;;;;2.00;1.75;;;;;23.17;53.63;100207.91;5103589;27;62925;-57
2022/06/24 03:46:40;;;;;;;;;3.50;3.50;;;;;23.17;53.41;100204.41;5110241;27;54822;-56
2022/06/24 03:49:05;;;;;;;;;3.50;3.50;;;;;23.19;53.57;100199.78;5104575;27;71429;-55
2022/06/24 03:51:31;;;;;;;;;2.75;2.75;;;;;23.19;53.42;100199.78;5113558;27;46143;-54
2022/06/24 03:53:56;;;;;;;;;3.00;3.00;;;;;23.18;53.29;100195.41;5104937;27;67869;-56
2022/06/24 03:56:21;;;;;;;;;4.00;3.00;;;;;23.16;53.32;100195.56;5106730;27;58652;-55
2022/06/24 03:58:47;;;;;;;;;4.00;2.50;;;;;23.18;53.47;100196.25;5109879;27;68432;-56
2022/06/24 04:01:12;;;;;;;;;5.00;4.25;;;;;23.20;53.78;100188.97;5108751;27;71075;-56
2022/06/24 04:03:37;;;;;;;;;5.25;4.00;;;;;23.20;53.67;100198.81;5105838;27;70914;-55
2022/06/24 04:06:03;;;;;;;;;7.00;4.00;;;;;23.20;53.76;100190.78;5117549;27;65110;-55
2022/06/24 04:08:28;;;;;;;;;4.00;4.00;;;;;23.21;53.63;100190.63;5107565;27;63550;-56
2022/06/24 04:10:53;;;;;;;;;4.50;4.25;;;;;23.21;53.69;100192.47;5110713;27;45555;-56
2022/06/24 04:13:18;;;;;;;;;4.00;4.00;;;;;23.21;53.60;100197.81;5106936;27;60797;-56
2022/06/24 04:15:46;;;;;;;;;4.75;4.00;;;;;23.23;53.46;100202.03;5111621;27;57169;-56
2022/06/24 04:18:11;;;;;;;;;7.00;5.50;;;;;23.24;53.61;100198.38;5100927;27;45546;-55
2022/06/24 04:20:37;;;;;;;;;5.00;4.25;;;;;23.23;54.13;100201.19;5103390;27;45507;-55
2022/06/24 04:23:02;;;;;;;;;3.50;3.50;;;;;23.21;54.22;100203.97;5110316;27;72072;-56
2022/06/24 04:25:27;;;;;;;;;4.50;4.50;;;;;23.19;54.23;100208.63;5103395;27;56426;-56
2022/06/24 04:27:53;;;;;;;;;6.75;4.75;;;;;23.18;53.83;100209.63;5102631;27;69607;-56
2022/06/24 04:30:18;;;;;;;;;3.25;3.00;;;;;23.16;54.68;100205.38;5106011;27;68887;-55
2022/06/24 04:32:43;;;;;;;;;4.25;3.00;;;;;23.19;54.45;100207.78;5108305;27;66077;-55
2022/06/24 04:35:09;;;;;;;;;4.50;4.50;;;;;23.23;54.66;100206.53;5110291;27;45424;-56
2022/06/24 04:37:36;;;;;;;;;5.00;5.00;;;;;23.25;54.41;100204.59;5105620;27;45795;-56
2022/06/24 04:40:02;;;;;;;;;5.25;5.25;;;;;23.29;54.62;100204.16;5109323;27;46993;-56
2022/06/24 04:42:27;;;;;;;;;4.50;4.00;;;;;23.34;54.30;100206.44;5109686;27;45658;-56
2022/06/24 04:44:53;;;;;;;;;6.25;4.00;;;;;23.35;54.37;100208.09;5109404;27;54950;-56
2022/06/24 04:47:19;;;;;;;;;4.00;3.00;;;;;23.38;54.21;100207.81;5108413;27;45308;-55
2022/06/24 04:49:44;;;;;;;;;3.00;3.00;;;;;23.39;54.48;100214.88;5106779;27;45323;-56
2022/06/24 04:52:10;;;;;;;;;5.00;5.00;;;;;23.43;54.12;100212.78;5114339;27;45427;-56
2022/06/24 04:54:35;;;;;;;;;4.00;4.00;;;;;23.47;54.18;100198.16;5102603;27;45680;-56
2022/06/24 04:57:01;;;;;;;;;6.00;6.00;;;;;23.49;54.27;100212.22;5104825;27;63674;-55
2022/06/24 04:59:26;;;;;;;;;4.50;4.00;;;;;23.53;54.33;100196.75;5109703;27;46793;-56
2022/06/24 05:01:51;;;;;;;;;4.00;4.00;;;;;23.52;54.19;100197.75;5110201;27;66579;-56
2022/06/24 05:04:17;;;;;;;;;4.50;4.00;;;;;23.48;53.60;100194.50;5122537;27;45630;-54
2022/06/24 05:06:42;;;;;;;;;6.00;5.00;;;;;23.48;53.93;100192.69;5112792;27;63837;-56
2022/06/24 05:09:07;;;;;;;;;5.50;4.00;;;;;23.45;53.59;100197.44;5111285;27;45436;-56
2022/06/24 05:11:34;;;;;;;;;5.25;5.00;;;;;23.45;54.16;100200.97;5108727;27;62690;-56
2022/06/24 05:13:59;;;;;;;;;7.75;5.00;;;;;23.44;54.42;100204.63;5109970;27;45317;-56
2022/06/24 05:16:25;;;;;;;;;5.00;5.00;;;;;23.50;53.90;100211.25;5109579;27;45495;-56
2022/06/24 05:18:50;;;;;;;;;4.50;4.00;;;;;23.50;54.13;100209.41;5106507;27;46256;-56
2022/06/24 05:21:15;;;;;;;;;7.00;4.75;;;;;23.54;54.24;100201.97;5108121;27;55448;-56
2022/06/24 05:23:41;;;;;;;;;5.75;4.75;;;;;23.55;54.02;100201.00;5106618;27;62226;-56
2022/06/24 05:26:06;;;;;;;;;5.50;5.00;;;;;23.60;54.33;100205.91;5111406;27;57189;-55
2022/06/24 05:28:34;;;;;;;;;6.25;5.00;;;;;23.58;54.07;100198.00;5103021;27;71643;-56
2022/06/24 05:30:59;;;;;;;;;4.00;3.75;;;;;23.61;53.90;100200.41;5107454;27;46976;-56
2022/06/24 05:33:25;;;;;;;;;4.50;4.50;;;;;23.64;53.59;100208.16;5110378;27;66679;-56
2022/06/24 05:35:52;;;;;;;;;4.75;4.75;;;;;23.63;53.87;100198.44;5113179;27;45578;-55
2022/06/24 05:38:21;;;;;;;;;5.25;5.00;;;;;23.63;53.63;100202.94;5106664;27;45548;-56
2022/06/24 05:40:47;;;;;;;;;5.00;5.00;;;;;23.61;53.80;100202.25;5104440;27;45595;-55
2022/06/24 05:43:12;;;;;;;;;6.00;6.00;;;;;23.58;54.13;100210.53;5106885;27;46019;-57
2022/06/24 05:45:38;;;;;;;;;6.00;5.25;;;;;23.55;53.97;100213.47;5108747;27;45467;-56
2022/06/24 05:48:03;;;;;;;;;4.00;4.00;;;;;23.55;54.03;100211.66;5105013;27;70665;-56
2022/06/24 05:50:29;;;;;;;;;7.00;5.75;;;;;23.55;54.10;100208.13;5107704;27;45535;-55
2022/06/24 05:55:38;;;;;;;;;5.75;5.00;;;;;23.53;54.10;100215.44;5102434;27;45574;-55
2022/06/24 05:58:03;;;;;;;;;6.00;4.75;;;;;23.53;53.63;100221.63;5104400;27;71784;-56
2022/06/24 06:00:29;;;;;;;;;7.75;5.00;;;;;23.52;53.69;100222.63;5109023;27;56753;-56
2022/06/24 06:02:54;;;;;;;;;7.25;5.75;;;;;23.53;53.82;100215.44;5106387;27;45408;-55
2022/06/24 06:05:20;;;;;;;;;4.00;3.25;;;;;23.55;54.17;100224.16;5113825;27;45400;-56
2022/06/24 06:07:45;;;;;;;;;7.00;4.75;;;;;23.60;53.90;100224.59;5101358;27;66874;-55
2022/06/24 06:10:10;;;;;;;;;7.00;5.25;;;;;23.63;53.70;100222.50;5102235;27;45425;-55
2022/06/24 06:12:36;;;;;;;;;5.25;5.25;;;;;23.66;53.91;100226.72;5107452;27;45486;-56
2022/06/24 06:15:02;;;;;;;;;6.00;5.00;;;;;23.67;53.70;100231.94;5109050;27;45410;-54
2022/06/24 06:17:27;;;;;;;;;6.50;4.00;;;;;23.65;53.43;100231.19;5109958;27;45413;-56
2022/06/24 06:19:52;;;;;;;;;7.00;6.50;;;;;23.65;53.00;100235.72;5104667;27;73232;-56
2022/06/24 06:22:18;;;;;;;;;5.00;5.00;;;;;23.66;53.11;100237.41;5111281;27;65318;-57
2022/06/24 06:24:43;;;;;;;;;6.00;5.75;;;;;23.67;53.23;100244.44;5107824;27;61190;-57
2022/06/24 06:27:09;;;;;;;;;5.00;4.25;;;;;23.65;53.07;100244.56;5111945;27;46341;-57
2022/06/24 06:29:34;;;;;;;;;5.50;4.50;;;;;23.65;53.00;100241.06;5106666;27;73335;-57
2022/06/24 06:31:59;;;;;;;;;5.00;5.00;;;;;23.64;52.70;100239.38;5118257;27;45409;-57
2022/06/24 06:34:25;;;;;;;;;6.50;6.00;;;;;23.62;52.53;100250.19;5106326;27;53269;-58
2022/06/24 06:36:50;;;;;;;;;6.00;5.00;;;;;23.61;52.53;100243.16;5112660;27;60938;-57
2022/06/24 06:39:15;;;;;;;;;4.00;3.75;;;;;23.61;52.80;100236.97;5105543;27;72890;-57
2022/06/24 06:41:41;;;;;;;;;3.00;3.00;;;;;23.59;52.94;100245.13;5111780;27;45401;-56
2022/06/24 06:44:07;;;;;;;;;5.25;5.25;;;;;23.60;52.63;100244.16;5106247;27;45509;-55
2022/06/24 06:46:32;;;;;;;;;4.25;4.25;;;;;23.60;52.52;100246.84;5105991;27;46128;-55
2022/06/24 06:48:57;;;;;;;;;5.25;3.75;;;;;23.60;52.64;100251.31;5105244;27;73486;-56
2022/06/24 06:51:23;;;;;;;;;5.00;5.00;;;;;23.60;52.83;100249.50;5109649;27;60468;-55
2022/06/24 06:53:48;;;;;;;;;8.75;8.75;;;;;23.60;52.85;100248.63;5105860;27;66363;-52
2022/06/24 06:56:14;;;;;;;;;5.00;5.00;;;;;23.61;52.77;100255.69;5108749;27;60981;-56
2022/06/24 06:58:39;;;;;;;;;6.25;3.25;;;;;23.61;52.61;100247.66;5106112;27;45371;-56
2022/06/24 07:01:04;;;;;;;;;6.25;6.00;;;;;23.62;52.58;100250.19;5106737;27;63284;-56
2022/06/24 07:03:30;;;;;;;;;5.00;5.00;;;;;23.62;52.60;100244.84;5108002;27;45508;-55
2022/06/24 07:05:55;;;;;;;;;5.25;3.50;;;;;23.62;52.22;100250.19;5108381;27;48879;-57
2022/06/24 07:08:23;;;;;;;;;10.00;6.00;;;;;23.65;52.43;100254.41;5108445;27;45521;-56
2022/06/24 07:10:48;;;;;;;;;6.00;4.50;;;;;23.68;52.72;100251.47;5110844;27;45317;-53
2022/06/24 07:13:13;;;;;;;;;8.00;8.00;;;;;23.70;52.68;100244.16;5109050;27;69374;-54
2022/06/24 07:15:39;;;;;;;;;5.00;4.00;;;;;23.71;52.19;100245.84;5120804;27;45516;-55
2022/06/24 07:18:04;;;;;;;;;7.25;5.00;;;;;23.72;52.21;100247.53;5107505;27;45556;-45
2022/06/24 07:20:30;;;;;;;;;6.00;4.00;;;;;23.73;51.98;100241.22;5106884;27;45964;-61
2022/06/24 07:22:55;;;;;;;;;6.75;5.50;;;;;23.74;52.26;100239.38;5110431;27;45440;-60
2022/06/24 07:25:20;;;;;;;;;5.75;3.50;;;;;23.77;52.16;100239.09;5120042;27;46896;-48
2022/06/24 07:27:46;;;;;;;;;4.75;4.75;;;;;23.79;51.87;100234.47;5106810;27;59559;-51
2022/06/24 07:30:12;;;;;;;;;3.50;3.50;;;;;23.81;52.05;100237.88;5107990;27;45409;-51
2022/06/24 07:32:37;;;;;;;;;4.00;3.50;;;;;23.81;51.95;100236.03;5108548;27;45289;-49
2022/06/24 07:35:03;;;;;;;;;6.00;4.50;;;;;23.82;51.66;100228.88;5103891;27;46090;-50
2022/06/24 07:37:28;;;;;;;;;5.00;5.00;;;;;23.82;51.67;100231.56;5105356;27;45573;-50
2022/06/24 07:39:53;;;;;;;;;5.25;5.00;;;;;23.84;51.72;100233.09;5108420;27;64128;-51
2022/06/24 07:42:19;;;;;;;;;4.00;4.00;;;;;23.87;51.68;100237.31;5103120;27;64239;-59
2022/06/24 07:44:44;;;;;;;;;5.00;4.50;;;;;23.91;51.81;100225.38;5101912;27;45432;-48
2022/06/24 07:47:10;;;;;;;;;5.50;5.00;;;;;23.97;51.84;100229.31;5104160;27;45322;-56
2022/06/24 07:49:36;;;;;;;;;6.00;4.50;;;;;24.01;51.66;100228.03;5100481;27;45296;-55
2022/06/24 07:52:01;;;;;;;;;4.25;3.75;;;;;24.06;51.48;100228.44;5109553;27;45412;-55
2022/06/24 07:54:27;;;;;;;;;5.75;4.75;;;;;24.11;51.49;100225.38;5113748;27;45618;-57
2022/06/24 07:56:58;;;;;;;;;4.25;4.25;;;;;24.16;51.53;100226.63;5110479;27;45370;-55
2022/06/24 07:59:25;;;;;;;;;3.75;3.75;;;;;24.21;51.36;100234.22;5112505;27;45441;-52
2022/06/24 08:01:52;;;;;;;;;4.75;4.75;;;;;24.24;51.33;100224.09;5103139;27;47464;-60
2022/06/24 08:04:18;;;;;;;;;4.50;3.50;;;;;24.29;50.96;100220.13;5117324;27;46903;-64
2022/06/24 08:06:49;;;;;;;;;5.50;4.25;;;;;24.31;50.82;100219.03;5105747;27;45429;-60
2022/06/24 08:09:18;;;;;;;;;5.00;5.00;;;;;24.35;50.88;100216.91;5104672;27;45460;-58
2022/06/24 08:11:44;;;;;;;;;5.75;5.25;;;;;24.37;50.80;100218.44;5106251;27;45210;-61
2022/06/24 08:14:10;;;;;;;;;7.25;6.00;;;;;24.39;50.63;100231.66;5109717;27;45962;-61
2022/06/24 08:16:36;;;;;;;;;6.25;5.00;;;;;24.39;50.77;100218.28;5108358;27;47115;-61
2022/06/24 08:19:01;;;;;;;;;4.75;3.50;;;;;24.41;50.75;100227.84;5092478;27;45624;-64
2022/06/24 08:21:26;;;;;;;;;6.00;4.00;;;;;24.44;50.61;100234.75;5095486;27;45463;-59
2022/06/24 08:23:52;;;;;;;;;5.75;4.25;;;;;24.44;50.59;100234.75;5094420;27;48186;-60
2022/06/24 08:26:17;;;;;;;;;8.50;4.50;;;;;24.48;50.16;100238.00;5101310;27;56181;-64
2022/06/24 08:28:43;;;;;;;;;5.25;5.25;;;;;24.48;49.92;100240.66;5102893;27;45730;-63
2022/06/24 08:31:09;;;;;;;;;4.25;4.25;;;;;24.50;50.22;100241.34;5106112;27;46208;-61
2022/06/24 08:33:34;;;;;;;;;5.25;5.25;;;;;24.49;49.64;100232.50;5102000;27;71001;-67
2022/06/24 08:36:01;;;;;;;;;6.00;4.50;;;;;24.50;49.89;100236.00;5100021;27;67029;-61
2022/06/24 08:38:26;;;;;;;;;8.25;6.00;;;;;24.49;49.97;100232.50;5101607;27;45778;-62
2022/06/24 08:40:53;;;;;;;;;6.00;6.00;;;;;24.51;49.68;100233.19;5109387;27;45508;-68
2022/06/24 08:43:21;;;;;;;;;3.50;3.50;;;;;24.53;49.46;100225.03;5107392;27;45409;-67
2022/06/24 08:45:47;;;;;;;;;4.25;3.25;;;;;24.54;49.23;100230.28;5101083;27;45902;-68
2022/06/24 08:48:13;;;;;;;;;5.25;4.25;;;;;24.56;49.05;100235.44;5102331;27;45436;-66
2022/06/24 08:50:39;;;;;;;;;4.50;4.50;;;;;24.56;49.07;100228.28;5104957;27;45439;-66
2022/06/24 08:53:11;;;;;;;;;7.00;3.75;;;;;24.58;48.88;100226.31;5110487;27;45612;-66
2022/06/24 08:55:38;;;;;;;;;3.50;3.50;;;;;24.59;48.89;100216.44;5117672;27;45241;-68
2022/06/24 08:58:08;;;;;;;;;3.00;3.00;;;;;24.59;48.58;100216.44;5107391;27;45796;-62
2022/06/24 09:00:34;;;;;;;;;2.75;2.25;;;;;24.59;48.49;100217.28;5108238;27;45406;-74
2022/06/24 09:02:59;;;;;;;;;3.00;3.00;;;;;24.60;48.57;100208.28;5101293;27;45573;-66
2022/06/24 09:05:28;;;;;;;;;4.00;4.00;;;;;24.61;48.89;100207.28;5100703;27;45210;-64
2022/06/24 09:08:03;;;;;;;;;4.25;3.75;;;;;24.64;48.87;100203.47;5103286;27;45442;-62
2022/06/24 09:10:29;;;;;;;;;3.50;3.25;;;;;24.64;48.26;100192.78;5105786;27;45384;-63
2022/06/24 09:12:54;;;;;;;;;3.00;3.00;;;;;24.67;48.52;100188.97;5102619;27;47241;-63
2022/06/24 09:15:20;;;;;;;;;2.25;2.25;;;;;24.71;48.22;100198.38;5107127;27;45428;-62
2022/06/24 09:17:46;;;;;;;;;5.00;3.00;;;;;24.75;48.37;100189.06;5106244;27;47296;-61
2022/06/24 09:20:13;;;;;;;;;2.75;2.25;;;;;24.77;48.33;100181.72;5099128;27;45326;-61
2022/06/24 09:22:39;;;;;;;;;5.00;3.50;;;;;24.79;48.21;100187.81;5105186;27;45417;-62
2022/06/24 09:25:05;;;;;;;;;3.25;3.00;;;;;24.82;48.08;100185.69;5102626;27;45153;-59
2022/06/24 09:27:31;;;;;;;;;2.25;2.25;;;;;24.84;47.68;100182.81;5102799;27;45348;-66
2022/06/24 09:29:57;;;;;;;;;3.00;3.00;;;;;24.87;48.02;100176.34;5102673;27;45462;-65
2022/06/24 09:32:22;;;;;;;;;2.50;2.25;;;;;24.88;47.63;100176.22;5100310;27;46145;-65
2022/06/24 09:35:06;;;;;;;;;3.50;2.75;;;;;24.91;47.75;100180.41;5101358;27;45373;-65
2022/06/24 09:37:39;;;;;;;;;7.00;6.50;;;;;24.93;47.70;100170.41;5105459;27;45475;-62
2022/06/24 09:40:32;;;;;;;;;5.00;3.50;;;;;24.94;47.32;100162.22;5112047;27;45393;-56
2022/06/24 09:43:03;;;;;;;;;5.00;5.00;;;;;24.98;47.50;100163.63;5102681;27;45905;-60
2022/06/24 09:45:47;;;;;;;;;6.25;4.00;;;;;25.02;47.93;100156.13;5102333;27;45472;-55
2022/06/24 09:48:32;;;;;;;;;4.75;4.00;;;;;25.04;48.05;100156.81;5102899;27;45314;-57
2022/06/24 09:50:59;;;;;;;;;6.00;3.25;;;;;25.08;47.95;100160.03;5101744;27;45502;-61
2022/06/24 09:53:26;;;;;;;;;5.00;4.00;;;;;25.09;48.27;100157.22;5102429;27;45420;-63
2022/06/24 09:55:52;;;;;;;;;3.75;3.00;;;;;25.13;48.12;100155.91;5116600;27;46822;-61
2022/06/24 09:58:18;;;;;;;;;3.00;3.00;;;;;25.14;47.98;100152.25;5106873;27;45511;-70
2022/06/24 10:00:44;;;;;;;;;3.00;3.00;;;;;25.16;47.91;100154.75;5100146;27;45339;-70
2022/06/24 10:03:11;;;;;;;;;3.50;3.50;;;;;25.19;48.24;100159.84;5103229;27;45717;-63
2022/06/24 10:05:42;;;;;;;;;3.75;3.75;;;;;25.19;48.25;100146.44;5107855;27;45656;-67
2022/06/24 10:08:19;;;;;;;;;2.25;2.25;;;;;25.25;47.98;100156.59;5100571;27;45519;-71
2022/06/24 10:10:55;;;;;;;;;4.00;3.25;;;;;25.28;48.09;100155.44;5123139;27;45266;-62
2022/06/24 10:13:34;;;;;;;;;3.00;3.00;;;;;25.30;48.00;100157.00;5104569;27;46945;-62
2022/06/24 10:16:02;;;;;;;;;3.00;2.75;;;;;25.31;47.88;100155.97;5106129;27;45636;-59
2022/06/24 10:18:40;;;;;;;;;3.25;2.25;;;;;25.33;47.69;100150.47;5103009;27;45567;-66
2022/06/24 10:21:06;;;;;;;;;3.00;2.00;;;;;25.34;48.34;100147.66;5101131;27;45502;-65
2022/06/24 10:23:39;;;;;;;;;2.00;2.00;;;;;25.33;48.24;100143.28;5106755;27;46253;-62
2022/06/24 10:26:25;;;;;;;;;2.25;2.25;;;;;25.38;48.31;100148.19;5105028;27;45589;-59
2022/06/24 10:28:59;;;;;;;;;5.75;4.00;;;;;25.39;47.89;100164.13;5104936;27;45391;-62
2022/06/24 10:31:48;;;;;;;;;3.00;3.00;;;;;25.41;47.88;100155.06;5100732;27;45209;-67
2022/06/24 10:34:22;;;;;;;;;5.50;3.00;;;;;25.41;48.19;100157.75;5104882;27;46295;-51
2022/06/24 10:36:49;;;;;;;;;6.75;4.00;;;;;25.43;48.14;100151.25;5105787;27;45330;-49
2022/06/24 10:39:16;;;;;;;;;8.50;5.00;;;;;25.44;47.78;100144.88;5107885;27;45397;-53
2022/06/24 10:41:42;;;;;;;;;5.00;5.00;;;;;25.47;47.78;100143.75;5108549;27;45357;-54
2022/06/24 10:44:24;;;;;;;;;4.25;3.00;;;;;25.48;47.80;100140.06;5101087;27;47124;-51
2022/06/24 10:47:05;;;;;;;;;7.50;5.00;;;;;25.50;47.73;100143.47;5107008;27;45263;-53
2022/06/24 10:50:09;;;;;;;;;8.25;5.00;;;;;25.53;47.93;100129.72;5101438;27;45508;-53
2022/06/24 10:52:35;;;;;;;;;6.25;3.75;;;;;25.54;47.89;100131.44;5053964;28;45575;-54
2022/06/24 10:55:16;;;;;;;;;9.75;5.25;;;;;25.57;47.71;100128.44;5095675;27;46271;-54
2022/06/24 10:57:45;;;;;;;;;9.50;6.00;;;;;25.60;48.06;100127.28;5102368;27;45864;-54
2022/06/24 11:00:11;;;;;;;;;5.50;4.25;;;;;25.63;47.93;100125.13;5103499;27;45285;-55
2022/06/24 11:02:36;;;;;;;;;7.00;4.50;;;;;25.65;47.69;100135.72;5103393;27;45250;-51
2022/06/24 11:05:02;;;;;;;;;7.00;2.50;;;;;25.68;47.86;100127.38;5109468;27;46237;-48
2022/06/24 11:07:28;;;;;;;;;9.00;6.50;;;;;25.71;47.79;100130.59;5109137;27;45413;-53
2022/06/24 11:09:53;;;;;;;;;10.75;3.75;;;;;25.72;47.39;100124.22;5103536;27;45578;-52
2022/06/24 11:12:30;;;;;;;;;10.50;5.25;;;;;25.74;47.44;100129.41;5103373;27;45286;-52
2022/06/24 11:14:56;;;;;;;;;5.25;4.00;;;;;25.75;47.48;100126.59;5107568;27;46033;-53
2022/06/24 11:17:25;;;;;;;;;9.50;5.00;;;;;25.76;47.64;100127.41;5107649;27;45468;-52
2022/06/24 11:19:51;;;;;;;;;9.75;4.00;;;;;25.77;47.46;100119.22;5105660;27;45334;-49
2022/06/24 11:22:17;;;;;;;;;5.75;3.25;;;;;25.79;47.78;100128.97;5103278;27;45211;-51
2022/06/24 11:24:48;;;;;;;;;7.00;4.00;;;;;25.80;47.53;100123.44;5116696;27;46166;-52
2022/06/24 11:27:13;;;;;;;;;9.25;5.75;;;;;25.81;47.58;100124.28;5105574;27;45381;-52
2022/06/24 11:30:08;;;;;;;;;5.00;3.50;;;;;25.83;47.64;100124.97;5101510;27;57881;-54